Airfield :
LOGIN :

Register | Disclaimer

   EN    FR    IT 

 










Legend :    VFR   Marginal VFR   IFR   Intensive IFR   Very Intensive IFR
Visi :
Ceiling :
>= 8 km
>= 3000ft
5 to 8 km
1000 to 3000 ft
1500m to 5 km
500 to 1000 ft
800 to 1500m
200 to 500 ft
< 800m
< 200 ft
Symbols :   Thunderstorms  Fog  Heavy snow  Heavy precipitations  Wind > 20 kt
SIGMETs :     Misc.  Thunderstorms  Icing  Turbulence  Mountain Waves  Volcanic Ashes






- Airport Elevation : 65 ft
- IATA code : PIK


EGPK - Glasgow Prestwick

CURRENT METAR :
  • 171820Z 25016KT 9999 FEW018 07/02 Q1010

EXPIRED METARs :
  • 171750Z 25011KT 9999 FEW013 SCT024 06/03 Q1010
  • 171720Z 24010KT 9999 FEW013 SCT024 06/04 Q1009
  • 171620Z 23008KT 9999 FEW015 SCT028 06/03 Q1008
  • 171550Z 23008KT 9999 -RA FEW012 BKN018 06/03 Q1008

TAF TAF EGPK
Valid from the 17 at 18:00 until the 18 at 18:00 UTC


171703Z 1718/1818 24012KT 9999 SCT019
TEMPO 1718/1807 6000 SHRA BKN012
PROB30
TEMPO 1718/1807 25015G25KT
BECMG 1813/1816 VRB04KT



MET'MAP, your aeronautical weather chart ! - Copyright ORBIFLY December 2007 - Disclaimer

ORBIFLY MET'MAP TEAM :

Programming & Development : Alexandra Zaïnal
Concept & original design : Baudouin d'Aumeries
Assistance for programming : Marc-Olivier Méhu
Technical & hardware support : Manuel Goepfert

Contact : metmap@orbifly.com




SOURCES & CREDITS :

   NOAA